My Meet Scores
Marissa Torri, Aspire Gymnastics Academy - MyMeetScores.com
Top100 | Top Teams | Upcoming Meets | Completed Meets | Latest | Add Scores | Help| Support | Bookmark and Share

Marissa Torri, Aspire Gymnastics Academy
Personal Bests
LevelVault BarsBeamFloorAA
39.6759.900 9.6759.70038.775
49.1009.900 9.8259.35037.600
59.8509.725 9.9009.80038.600
Scores on America's Top 100as of 06.18.2019
Year Level Vault Bars Beam Floor AA
2017 39.900, 9.850
2017 49.900
2018 49.825
2018 59.700
2019 59.8509.7259.900, 9.6759.80038.600, 38.500, 38.225

Click here to view our
exclusive Top 100 Collection

Click here to view our
exclusive Top 100 Collection

Click here to view our
exclusive Top 100 Collection
Meet Scores
Date Meet Team Session Level Division Vault Bars Beam Floor AA
2019-03-22 Illinois Gymnastics State Championships Aspire Gymnastics Academy 1 5 JR D 9.850 1 9.550 2 9.400 5 9.800 1 38.600 1
2019-03-08 Lucky Invite Aspire Gymnastics Academy A07 5 Jr B 9.500 1 9.725 1 9.650 2 9.350 2 38.225 1
2019-02-23 Kinetic Classic 2019 Aspire Gymnastics Academy 1 5 Younger 8.325 510T 9.400 65T 9.675 5T 9.200 155* 36.600 101T
2019-02-15 Big ClassicBIG CLASSIC Aspire Gymnastics Academy 5B 5 Child B 9.525 1 9.600 2 9.900 1 9.475 1 38.500 1
2019-01-25 UGA Invitational Aspire Gymnastics Academy B11 5 Jr A 9.225 6 9.500 2 9.650 1 9.450 3 37.825 1
2019-01-18 2019 Bravo Classic Aspire Gymnastics Academy 2A 5 Child 8.925 7 9.025 10T 9.600 2 9.550 7 37.100 6
2018-12-14 2018 Aspire Classic Aspire Gymnastics Academy 8A 5 Younger 9.150 12T 9.550 1 9.475 4 9.275 3 37.450 1
2018-12-07 St. Nick Invite 2018 Aspire Gymnastics Academy 1 5 JrB 9.300 2T 8.850 7 9.450 2 9.200 3 36.800 2
2018-11-17 Paul Hamm Thanksgiving Class WOMENS Aspire Gymnastics Academy 5 5 Younger 9.275 3 9.450 1 8.825 14 9.700 1 37.250 3
2018-03-08 Level 4 & 5 State Aspire Gymnastics Academy All 4 Yh A 8.950 14 9.475 3 9.675 4 9.200 8T 37.300 6
2018-02-16 Big Classic Aspire Gymnastics Academy 2B 4 Child B 8.400 10 9.625 1 9.200 3T 9.300 3T 36.525 4
2018-01-26 2018 UGA Classic Aspire Gymnastics Academy AA1 4 Jr B 9.100 1T 9.350 1T 9.825 1 9.325 4 37.600 1
2018-01-19 2018 Bravo Classic Aspire Gymnastics Academy 12B 4 Jr 8.500 9T 9.275 5T 9.525 3T 9.275 8 36.575 7
2017-12-15 2017 Aspire Classic Aspire Gymnastics Academy 3 4 Jr B 8.700 13 9.550 5 8.850 11 9.050 6T 36.150 7
2017-12-08 St. Nick Invite Aspire Gymnastics Academy 7A 4 JrA 8.850 11T 9.600 1 9.750 1 9.350 4T 37.550 2
2017-11-16 Paul Hamm Thanksgiving Classic - Women Aspire Gymnastics Academy 7 4 Younger 8.300 21 9.900 1 9.800 1 9.250 5 37.250 4
2017-03-30 2017 Illinois Level 3 & 5 State Aspire Gymnastics Academy All 3 Yh C 9.675 4 9.900 1 9.650 1 9.550 1 38.775 1
2017-02-24 Kinetic Classic Aspire Gymnastics Academy 4,5,6,7 3 All Ages 9.250 29T 9.400 8T 9.675 4 9.625 3 37.950 2
2017-02-18 2017 Great Western Invitational Women's Aspire Gymnastics Academy 2 3 Filly 9.225 8 9.850 1 9.525 2 9.675 3T 38.275 2
2017-01-27 2017 UGA Invitational Aspire Gymnastics Academy B7 3 Jr B 9.100 4 9.500 1 9.525 2 9.525 2 37.650 1
2017-01-20 2017 Bravo Classic Aspire Gymnastics Academy 10B 3 8yrs 9.500 1 9.775 1 9.650 1 9.675 1 38.600 1
2016-12-16 2016 Aspire Classic Aspire Gymnastics Academy 11 3 Middle 9.625 1 9.800 1 9.650 1 9.475 1 38.550 1
2016-12-09 St. Nick Invite Aspire Gymnastics Academy 5 3 All 9.150 43T 9.425 10 9.625 5T 9.700 1T 37.900 8T
2016-11-19 Paul Hamm Thanksgiving Classic - 2016 Girls Aspire Gymnastics Academy 6 3 8-9 yrs 9.500 2 9.550 3 9.325 3 9.525 3 37.900 2
2016-03-04 2016 Illinois Level 3 State Championships Aspire Gymnastics Academy 3 Child-C 9.400 6 8.850 12 8.900 2 8.275 29 35.425 11
2016-02-13 Western Invite Aspire Gymnastics Academy 1 3 Filly 8.900 14T 9.050 6T 8.750 6T 8.150 23 34.850 12
2016-01-30 2016 Flip'R Invitational Aspire Gymnastics Academy 1 3 6 to 7 8.975 8 8.400 9 8.750 6 8.500 13 34.625 8
2016-01-15 2016 Bravo Classic Aspire Gymnastics Academy 15A 3 6-7yrs 9.050 14 8.600 19 8.700 11T 8.400 20T 34.750 16
Click here to view our personalized
"Celebrate Your Season"
2018-19 Collection

www.lazysuits.com